sensor_id;sensor_type;location;lat;lon;timestamp;temperature;humidity
27795;DHT22;15176;50.844;4.412;2023-07-31T00:00:47;18.70;99.90
27795;DHT22;15176;50.844;4.412;2023-07-31T00:03:13;18.70;99.90
27795;DHT22;15176;50.844;4.412;2023-07-31T00:05:38;18.50;99.90
27795;DHT22;15176;50.844;4.412;2023-07-31T00:08:04;18.60;99.90
27795;DHT22;15176;50.844;4.412;2023-07-31T00:10:30;18.50;99.90
27795;DHT22;15176;50.844;4.412;2023-07-31T00:12:55;18.60;99.90
27795;DHT22;15176;50.844;4.412;2023-07-31T00:15:21;18.80;99.90
27795;DHT22;15176;50.844;4.412;2023-07-31T00:17:47;18.40;99.90
27795;DHT22;15176;50.844;4.412;2023-07-31T00:20:13;18.50;99.90
27795;DHT22;15176;50.844;4.412;2023-07-31T00:22:38;18.60;99.90
27795;DHT22;15176;50.844;4.412;2023-07-31T00:25:04;18.50;99.90
27795;DHT22;15176;50.844;4.412;2023-07-31T00:27:32;18.50;99.90
27795;DHT22;15176;50.844;4.412;2023-07-31T00:29:57;18.50;99.90
27795;DHT22;15176;50.844;4.412;2023-07-31T00:32:23;18.60;99.90
27795;DHT22;15176;50.844;4.412;2023-07-31T00:34:49;18.40;99.90
27795;DHT22;15176;50.844;4.412;2023-07-31T00:37:14;18.50;99.90
27795;DHT22;15176;50.844;4.412;2023-07-31T00:39:40;18.60;99.90
27795;DHT22;15176;50.844;4.412;2023-07-31T00:42:07;18.70;99.90
27795;DHT22;15176;50.844;4.412;2023-07-31T00:44:33;18.80;99.90
27795;DHT22;15176;50.844;4.412;2023-07-31T00:47:00;18.80;99.90
27795;DHT22;15176;50.844;4.412;2023-07-31T00:49:26;18.90;99.90
27795;DHT22;15176;50.844;4.412;2023-07-31T00:51:52;18.90;99.90
27795;DHT22;15176;50.844;4.412;2023-07-31T00:54:18;18.90;99.90
27795;DHT22;15176;50.844;4.412;2023-07-31T00:56:45;18.90;99.90
27795;DHT22;15176;50.844;4.412;2023-07-31T00:59:11;18.70;99.90
27795;DHT22;15176;50.844;4.412;2023-07-31T01:01:37;18.60;99.90
27795;DHT22;15176;50.844;4.412;2023-07-31T01:04:04;18.70;99.90
27795;DHT22;15176;50.844;4.412;2023-07-31T01:12:18;18.50;99.90
27795;DHT22;15176;50.844;4.412;2023-07-31T01:17:26;18.40;99.90
27795;DHT22;15176;50.844;4.412;2023-07-31T01:19:54;18.50;99.90
27795;DHT22;15176;50.844;4.412;2023-07-31T01:28:14;18.60;99.90
27795;DHT22;15176;50.844;4.412;2023-07-31T01:30:45;18.60;99.90
27795;DHT22;15176;50.844;4.412;2023-07-31T01:33:12;18.50;99.90
27795;DHT22;15176;50.844;4.412;2023-07-31T01:35:39;18.50;99.90
27795;DHT22;15176;50.844;4.412;2023-07-31T01:38:05;18.40;99.90
27795;DHT22;15176;50.844;4.412;2023-07-31T01:40:31;18.40;99.90
27795;DHT22;15176;50.844;4.412;2023-07-31T01:42:57;18.70;99.90
27795;DHT22;15176;50.844;4.412;2023-07-31T01:45:23;18.70;99.90
27795;DHT22;15176;50.844;4.412;2023-07-31T01:47:49;18.80;99.90
27795;DHT22;15176;50.844;4.412;2023-07-31T01:50:14;18.80;99.90
27795;DHT22;15176;50.844;4.412;2023-07-31T01:52:40;18.60;99.90
27795;DHT22;15176;50.844;4.412;2023-07-31T01:55:06;18.60;99.90
27795;DHT22;15176;50.844;4.412;2023-07-31T01:57:31;18.80;99.90
27795;DHT22;15176;50.844;4.412;2023-07-31T01:59:57;19.00;99.90
27795;DHT22;15176;50.844;4.412;2023-07-31T02:02:23;18.90;99.90
27795;DHT22;15176;50.844;4.412;2023-07-31T02:04:48;18.90;99.90
27795;DHT22;15176;50.844;4.412;2023-07-31T02:07:14;18.70;99.90
27795;DHT22;15176;50.844;4.412;2023-07-31T02:09:40;18.90;99.90
27795;DHT22;15176;50.844;4.412;2023-07-31T02:12:06;18.70;99.90
27795;DHT22;15176;50.844;4.412;2023-07-31T02:14:34;18.70;99.90
27795;DHT22;15176;50.844;4.412;2023-07-31T02:17:00;18.80;99.90
27795;DHT22;15176;50.844;4.412;2023-07-31T02:19:25;18.60;99.90
27795;DHT22;15176;50.844;4.412;2023-07-31T02:21:51;18.60;99.90
27795;DHT22;15176;50.844;4.412;2023-07-31T02:24:17;18.50;99.90
27795;DHT22;15176;50.844;4.412;2023-07-31T02:26:43;18.70;99.90
27795;DHT22;15176;50.844;4.412;2023-07-31T02:29:09;18.70;99.90
27795;DHT22;15176;50.844;4.412;2023-07-31T02:31:34;18.50;99.90
27795;DHT22;15176;50.844;4.412;2023-07-31T02:34:00;18.60;99.90
27795;DHT22;15176;50.844;4.412;2023-07-31T02:36:25;18.80;99.90
27795;DHT22;15176;50.844;4.412;2023-07-31T02:38:51;18.80;99.90
27795;DHT22;15176;50.844;4.412;2023-07-31T02:41:17;18.50;99.90
27795;DHT22;15176;50.844;4.412;2023-07-31T02:43:42;18.70;99.90
27795;DHT22;15176;50.844;4.412;2023-07-31T02:46:08;18.70;99.90
27795;DHT22;15176;50.844;4.412;2023-07-31T02:48:34;18.50;99.90
27795;DHT22;15176;50.844;4.412;2023-07-31T02:50:59;18.60;99.90
27795;DHT22;15176;50.844;4.412;2023-07-31T02:53:25;18.60;99.90
27795;DHT22;15176;50.844;4.412;2023-07-31T02:55:51;18.60;99.90
27795;DHT22;15176;50.844;4.412;2023-07-31T02:58:16;18.50;99.90
27795;DHT22;15176;50.844;4.412;2023-07-31T03:00:43;18.50;99.90
27795;DHT22;15176;50.844;4.412;2023-07-31T03:03:09;18.40;99.90
27795;DHT22;15176;50.844;4.412;2023-07-31T03:05:35;18.60;99.90
27795;DHT22;15176;50.844;4.412;2023-07-31T03:08:01;18.70;99.90
27795;DHT22;15176;50.844;4.412;2023-07-31T03:10:27;18.80;99.90
27795;DHT22;15176;50.844;4.412;2023-07-31T03:12:53;18.70;99.90
27795;DHT22;15176;50.844;4.412;2023-07-31T03:15:19;18.80;99.90
27795;DHT22;15176;50.844;4.412;2023-07-31T03:17:45;18.70;99.90
27795;DHT22;15176;50.844;4.412;2023-07-31T03:20:11;18.50;99.90
27795;DHT22;15176;50.844;4.412;2023-07-31T03:22:37;18.70;99.90
27795;DHT22;15176;50.844;4.412;2023-07-31T03:25:04;18.60;99.90
27795;DHT22;15176;50.844;4.412;2023-07-31T03:27:29;18.60;99.90
27795;DHT22;15176;50.844;4.412;2023-07-31T03:29:55;18.70;99.90
27795;DHT22;15176;50.844;4.412;2023-07-31T03:32:21;18.70;99.90
27795;DHT22;15176;50.844;4.412;2023-07-31T03:34:47;18.70;99.90
27795;DHT22;15176;50.844;4.412;2023-07-31T03:37:12;18.50;99.90
27795;DHT22;15176;50.844;4.412;2023-07-31T03:39:38;18.30;99.90
27795;DHT22;15176;50.844;4.412;2023-07-31T03:42:04;18.40;99.90
27795;DHT22;15176;50.844;4.412;2023-07-31T03:44:30;18.50;99.90
27795;DHT22;15176;50.844;4.412;2023-07-31T03:46:56;18.60;99.90
27795;DHT22;15176;50.844;4.412;2023-07-31T03:49:21;18.60;99.90
27795;DHT22;15176;50.844;4.412;2023-07-31T03:51:47;18.50;99.90
27795;DHT22;15176;50.844;4.412;2023-07-31T03:54:12;18.30;99.90
27795;DHT22;15176;50.844;4.412;2023-07-31T03:56:39;18.50;99.90
27795;DHT22;15176;50.844;4.412;2023-07-31T03:59:06;18.50;99.90
27795;DHT22;15176;50.844;4.412;2023-07-31T04:01:31;18.50;99.90
27795;DHT22;15176;50.844;4.412;2023-07-31T04:03:57;18.60;99.90
27795;DHT22;15176;50.844;4.412;2023-07-31T04:06:23;18.40;99.90
27795;DHT22;15176;50.844;4.412;2023-07-31T04:08:49;18.30;99.90
27795;DHT22;15176;50.844;4.412;2023-07-31T04:11:14;18.40;99.90
27795;DHT22;15176;50.844;4.412;2023-07-31T04:13:40;18.00;99.90
27795;DHT22;15176;50.844;4.412;2023-07-31T04:16:06;18.10;99.90
27795;DHT22;15176;50.844;4.412;2023-07-31T04:18:31;18.10;99.90
27795;DHT22;15176;50.844;4.412;2023-07-31T04:20:58;18.30;99.90
27795;DHT22;15176;50.844;4.412;2023-07-31T04:23:24;18.40;99.90
27795;DHT22;15176;50.844;4.412;2023-07-31T04:25:50;18.40;99.90
27795;DHT22;15176;50.844;4.412;2023-07-31T04:28:16;18.40;99.90
27795;DHT22;15176;50.844;4.412;2023-07-31T04:30:42;18.50;99.90
27795;DHT22;15176;50.844;4.412;2023-07-31T04:33:07;18.60;99.90
27795;DHT22;15176;50.844;4.412;2023-07-31T04:35:33;18.60;99.90
27795;DHT22;15176;50.844;4.412;2023-07-31T04:37:59;18.50;99.90
27795;DHT22;15176;50.844;4.412;2023-07-31T04:40:26;18.50;99.90
27795;DHT22;15176;50.844;4.412;2023-07-31T04:42:51;18.40;99.90
27795;DHT22;15176;50.844;4.412;2023-07-31T04:45:17;18.60;99.90
27795;DHT22;15176;50.844;4.412;2023-07-31T04:47:43;18.70;99.90
27795;DHT22;15176;50.844;4.412;2023-07-31T04:50:09;18.70;99.90
27795;DHT22;15176;50.844;4.412;2023-07-31T04:52:35;18.70;99.90
27795;DHT22;15176;50.844;4.412;2023-07-31T04:55:01;18.70;99.90
27795;DHT22;15176;50.844;4.412;2023-07-31T04:57:26;18.60;99.90
27795;DHT22;15176;50.844;4.412;2023-07-31T04:59:52;18.60;99.90
27795;DHT22;15176;50.844;4.412;2023-07-31T05:02:18;18.50;99.90
27795;DHT22;15176;50.844;4.412;2023-07-31T05:04:43;18.40;99.90
27795;DHT22;15176;50.844;4.412;2023-07-31T05:07:10;18.40;99.90
27795;DHT22;15176;50.844;4.412;2023-07-31T05:09:36;18.30;99.90
27795;DHT22;15176;50.844;4.412;2023-07-31T05:12:03;18.30;99.90
27795;DHT22;15176;50.844;4.412;2023-07-31T05:14:30;18.40;99.90
27795;DHT22;15176;50.844;4.412;2023-07-31T05:16:55;18.40;99.90
27795;DHT22;15176;50.844;4.412;2023-07-31T05:19:22;18.40;99.90
27795;DHT22;15176;50.844;4.412;2023-07-31T05:21:47;18.50;99.90
27795;DHT22;15176;50.844;4.412;2023-07-31T05:24:13;18.60;99.90
27795;DHT22;15176;50.844;4.412;2023-07-31T05:26:39;18.40;99.90
27795;DHT22;15176;50.844;4.412;2023-07-31T05:29:05;18.10;99.90
27795;DHT22;15176;50.844;4.412;2023-07-31T05:31:32;18.10;99.90
27795;DHT22;15176;50.844;4.412;2023-07-31T05:33:58;17.90;99.90
27795;DHT22;15176;50.844;4.412;2023-07-31T05:36:23;17.90;99.90
27795;DHT22;15176;50.844;4.412;2023-07-31T05:38:49;18.00;99.90
27795;DHT22;15176;50.844;4.412;2023-07-31T05:41:21;18.10;99.90
27795;DHT22;15176;50.844;4.412;2023-07-31T05:43:50;18.20;99.90
27795;DHT22;15176;50.844;4.412;2023-07-31T05:46:20;18.30;99.90
27795;DHT22;15176;50.844;4.412;2023-07-31T05:48:49;18.30;99.90
27795;DHT22;15176;50.844;4.412;2023-07-31T05:51:14;18.30;99.90
27795;DHT22;15176;50.844;4.412;2023-07-31T05:53:40;18.40;99.90
27795;DHT22;15176;50.844;4.412;2023-07-31T05:56:06;18.40;99.90
27795;DHT22;15176;50.844;4.412;2023-07-31T05:58:32;18.40;99.90
27795;DHT22;15176;50.844;4.412;2023-07-31T06:00:57;18.50;99.90
27795;DHT22;15176;50.844;4.412;2023-07-31T06:03:23;18.60;99.90
27795;DHT22;15176;50.844;4.412;2023-07-31T06:05:49;18.00;99.90
27795;DHT22;15176;50.844;4.412;2023-07-31T06:08:15;17.90;99.90
27795;DHT22;15176;50.844;4.412;2023-07-31T06:10:41;18.00;99.90
27795;DHT22;15176;50.844;4.412;2023-07-31T06:13:06;18.30;99.90
27795;DHT22;15176;50.844;4.412;2023-07-31T06:15:32;18.10;99.90
27795;DHT22;15176;50.844;4.412;2023-07-31T06:17:58;18.30;99.90
27795;DHT22;15176;50.844;4.412;2023-07-31T06:20:24;18.30;99.90
27795;DHT22;15176;50.844;4.412;2023-07-31T06:22:50;18.30;99.90
27795;DHT22;15176;50.844;4.412;2023-07-31T06:25:15;18.20;99.90
27795;DHT22;15176;50.844;4.412;2023-07-31T06:27:42;18.20;99.90
27795;DHT22;15176;50.844;4.412;2023-07-31T06:30:09;18.20;99.90
27795;DHT22;15176;50.844;4.412;2023-07-31T06:32:38;18.30;99.90
27795;DHT22;15176;50.844;4.412;2023-07-31T06:35:04;18.30;99.90
27795;DHT22;15176;50.844;4.412;2023-07-31T06:37:30;18.30;99.90
27795;DHT22;15176;50.844;4.412;2023-07-31T06:39:55;18.40;99.90
27795;DHT22;15176;50.844;4.412;2023-07-31T06:42:21;18.20;99.90
27795;DHT22;15176;50.844;4.412;2023-07-31T06:44:47;18.30;99.90
27795;DHT22;15176;50.844;4.412;2023-07-31T06:47:14;18.50;99.90
27795;DHT22;15176;50.844;4.412;2023-07-31T06:49:40;18.40;99.90
27795;DHT22;15176;50.844;4.412;2023-07-31T06:52:06;18.40;99.90
27795;DHT22;15176;50.844;4.412;2023-07-31T06:54:32;18.20;99.90
27795;DHT22;15176;50.844;4.412;2023-07-31T06:56:59;18.30;99.90
27795;DHT22;15176;50.844;4.412;2023-07-31T06:59:25;18.50;99.90
27795;DHT22;15176;50.844;4.412;2023-07-31T07:01:51;18.70;99.90
27795;DHT22;15176;50.844;4.412;2023-07-31T07:04:17;18.70;99.90
27795;DHT22;15176;50.844;4.412;2023-07-31T07:06:42;18.60;99.90
27795;DHT22;15176;50.844;4.412;2023-07-31T07:09:08;18.60;99.90
27795;DHT22;15176;50.844;4.412;2023-07-31T07:11:34;18.50;99.90
27795;DHT22;15176;50.844;4.412;2023-07-31T07:13:59;18.70;99.90
27795;DHT22;15176;50.844;4.412;2023-07-31T07:16:28;18.70;99.90
27795;DHT22;15176;50.844;4.412;2023-07-31T07:18:54;18.90;99.90
27795;DHT22;15176;50.844;4.412;2023-07-31T07:21:20;19.10;99.90
27795;DHT22;15176;50.844;4.412;2023-07-31T07:23:45;19.00;99.90
27795;DHT22;15176;50.844;4.412;2023-07-31T07:26:11;18.90;99.90
27795;DHT22;15176;50.844;4.412;2023-07-31T07:28:37;19.00;99.90
27795;DHT22;15176;50.844;4.412;2023-07-31T07:31:03;19.20;99.90
27795;DHT22;15176;50.844;4.412;2023-07-31T07:33:29;19.30;99.90
27795;DHT22;15176;50.844;4.412;2023-07-31T07:35:54;19.20;99.90
27795;DHT22;15176;50.844;4.412;2023-07-31T07:38:20;19.10;99.90
27795;DHT22;15176;50.844;4.412;2023-07-31T07:40:46;18.90;99.90
27795;DHT22;15176;50.844;4.412;2023-07-31T07:43:16;19.10;99.90
27795;DHT22;15176;50.844;4.412;2023-07-31T07:45:41;19.00;99.90
27795;DHT22;15176;50.844;4.412;2023-07-31T07:48:07;19.00;99.90
27795;DHT22;15176;50.844;4.412;2023-07-31T07:50:33;19.00;99.90
27795;DHT22;15176;50.844;4.412;2023-07-31T07:52:58;19.00;99.90
27795;DHT22;15176;50.844;4.412;2023-07-31T07:55:24;18.60;99.90
27795;DHT22;15176;50.844;4.412;2023-07-31T07:57:50;18.70;99.90
27795;DHT22;15176;50.844;4.412;2023-07-31T08:00:16;18.80;99.90
27795;DHT22;15176;50.844;4.412;2023-07-31T08:02:43;18.90;99.90
27795;DHT22;15176;50.844;4.412;2023-07-31T08:05:09;19.10;99.90
27795;DHT22;15176;50.844;4.412;2023-07-31T08:07:34;19.20;99.90
27795;DHT22;15176;50.844;4.412;2023-07-31T08:10:00;19.10;99.90
27795;DHT22;15176;50.844;4.412;2023-07-31T08:12:26;19.10;99.90
27795;DHT22;15176;50.844;4.412;2023-07-31T08:14:53;19.00;99.90
27795;DHT22;15176;50.844;4.412;2023-07-31T08:17:18;19.20;99.90
27795;DHT22;15176;50.844;4.412;2023-07-31T08:19:44;19.10;99.90
27795;DHT22;15176;50.844;4.412;2023-07-31T08:22:11;19.10;99.90
27795;DHT22;15176;50.844;4.412;2023-07-31T08:24:37;19.10;99.90
27795;DHT22;15176;50.844;4.412;2023-07-31T08:27:02;19.10;99.90
27795;DHT22;15176;50.844;4.412;2023-07-31T08:29:28;19.00;99.90
27795;DHT22;15176;50.844;4.412;2023-07-31T08:31:54;18.80;99.90
27795;DHT22;15176;50.844;4.412;2023-07-31T08:34:20;18.90;99.90
27795;DHT22;15176;50.844;4.412;2023-07-31T08:36:46;19.10;99.90
27795;DHT22;15176;50.844;4.412;2023-07-31T08:39:11;19.10;99.90
27795;DHT22;15176;50.844;4.412;2023-07-31T08:41:40;18.90;99.90
27795;DHT22;15176;50.844;4.412;2023-07-31T08:44:07;18.80;99.90
27795;DHT22;15176;50.844;4.412;2023-07-31T08:46:33;18.60;99.90
27795;DHT22;15176;50.844;4.412;2023-07-31T08:48:59;18.80;99.90
27795;DHT22;15176;50.844;4.412;2023-07-31T08:51:26;18.80;99.90
27795;DHT22;15176;50.844;4.412;2023-07-31T08:53:53;18.70;99.90
27795;DHT22;15176;50.844;4.412;2023-07-31T08:56:19;18.80;99.90
27795;DHT22;15176;50.844;4.412;2023-07-31T08:58:45;18.90;99.90
27795;DHT22;15176;50.844;4.412;2023-07-31T09:01:12;18.80;99.90
27795;DHT22;15176;50.844;4.412;2023-07-31T09:03:39;18.80;99.90
27795;DHT22;15176;50.844;4.412;2023-07-31T09:06:06;18.70;99.90
27795;DHT22;15176;50.844;4.412;2023-07-31T09:08:33;18.40;99.90
27795;DHT22;15176;50.844;4.412;2023-07-31T09:11:00;18.40;99.90
27795;DHT22;15176;50.844;4.412;2023-07-31T09:13:31;18.70;99.90
27795;DHT22;15176;50.844;4.412;2023-07-31T09:15:57;18.90;99.90
27795;DHT22;15176;50.844;4.412;2023-07-31T09:18:22;18.80;99.90
27795;DHT22;15176;50.844;4.412;2023-07-31T09:21:08;19.00;99.90
27795;DHT22;15176;50.844;4.412;2023-07-31T09:23:44;18.80;99.90
27795;DHT22;15176;50.844;4.412;2023-07-31T09:26:11;19.00;99.90
27795;DHT22;15176;50.844;4.412;2023-07-31T09:28:53;19.20;99.90
27795;DHT22;15176;50.844;4.412;2023-07-31T09:31:32;19.40;99.90
27795;DHT22;15176;50.844;4.412;2023-07-31T09:33:59;19.10;99.90
27795;DHT22;15176;50.844;4.412;2023-07-31T09:36:29;19.10;99.90
27795;DHT22;15176;50.844;4.412;2023-07-31T09:38:56;19.20;99.90
27795;DHT22;15176;50.844;4.412;2023-07-31T09:41:23;19.30;99.90
27795;DHT22;15176;50.844;4.412;2023-07-31T09:43:55;19.20;99.90
27795;DHT22;15176;50.844;4.412;2023-07-31T09:46:21;19.00;99.90
27795;DHT22;15176;50.844;4.412;2023-07-31T09:48:47;19.00;99.90
27795;DHT22;15176;50.844;4.412;2023-07-31T09:51:13;18.60;99.90
27795;DHT22;15176;50.844;4.412;2023-07-31T09:53:39;18.80;99.90
27795;DHT22;15176;50.844;4.412;2023-07-31T09:56:05;18.90;99.90
27795;DHT22;15176;50.844;4.412;2023-07-31T09:58:34;18.90;99.90
27795;DHT22;15176;50.844;4.412;2023-07-31T10:01:02;19.10;99.90
27795;DHT22;15176;50.844;4.412;2023-07-31T10:03:29;19.00;99.90
27795;DHT22;15176;50.844;4.412;2023-07-31T10:05:57;19.30;99.90
27795;DHT22;15176;50.844;4.412;2023-07-31T10:08:30;19.00;99.90
27795;DHT22;15176;50.844;4.412;2023-07-31T10:11:00;18.70;99.90
27795;DHT22;15176;50.844;4.412;2023-07-31T10:13:28;18.90;99.90
27795;DHT22;15176;50.844;4.412;2023-07-31T10:15:54;19.20;99.90
27795;DHT22;15176;50.844;4.412;2023-07-31T10:18:24;19.20;99.90
27795;DHT22;15176;50.844;4.412;2023-07-31T10:20:50;19.40;99.90
27795;DHT22;15176;50.844;4.412;2023-07-31T10:23:17;19.60;99.90
27795;DHT22;15176;50.844;4.412;2023-07-31T10:25:44;19.60;99.90
27795;DHT22;15176;50.844;4.412;2023-07-31T10:28:11;19.40;99.90
27795;DHT22;15176;50.844;4.412;2023-07-31T10:30:38;19.50;99.90
27795;DHT22;15176;50.844;4.412;2023-07-31T10:33:05;19.50;99.90
27795;DHT22;15176;50.844;4.412;2023-07-31T10:35:31;19.90;99.90
27795;DHT22;15176;50.844;4.412;2023-07-31T10:38:12;20.00;99.90
27795;DHT22;15176;50.844;4.412;2023-07-31T10:40:38;20.10;99.90
27795;DHT22;15176;50.844;4.412;2023-07-31T10:43:05;20.20;99.90
27795;DHT22;15176;50.844;4.412;2023-07-31T10:45:39;20.10;99.90
27795;DHT22;15176;50.844;4.412;2023-07-31T10:48:15;20.00;99.90
27795;DHT22;15176;50.844;4.412;2023-07-31T10:50:52;19.90;99.90
27795;DHT22;15176;50.844;4.412;2023-07-31T10:53:31;19.90;99.90
27795;DHT22;15176;50.844;4.412;2023-07-31T10:56:04;19.90;99.90
27795;DHT22;15176;50.844;4.412;2023-07-31T10:58:31;20.00;99.90
27795;DHT22;15176;50.844;4.412;2023-07-31T11:01:05;19.90;99.90
27795;DHT22;15176;50.844;4.412;2023-07-31T11:03:47;20.20;99.90
27795;DHT22;15176;50.844;4.412;2023-07-31T11:06:15;20.30;99.90
27795;DHT22;15176;50.844;4.412;2023-07-31T11:08:46;20.00;99.90
27795;DHT22;15176;50.844;4.412;2023-07-31T11:11:16;20.00;99.90
27795;DHT22;15176;50.844;4.412;2023-07-31T11:13:47;20.10;99.90
27795;DHT22;15176;50.844;4.412;2023-07-31T11:16:16;20.30;99.90
27795;DHT22;15176;50.844;4.412;2023-07-31T11:18:43;20.50;99.90
27795;DHT22;15176;50.844;4.412;2023-07-31T11:21:17;20.60;99.90
27795;DHT22;15176;50.844;4.412;2023-07-31T11:23:50;20.40;99.90
27795;DHT22;15176;50.844;4.412;2023-07-31T11:26:17;20.10;99.90
27795;DHT22;15176;50.844;4.412;2023-07-31T11:28:47;20.20;99.90
27795;DHT22;15176;50.844;4.412;2023-07-31T11:31:12;20.30;99.90
27795;DHT22;15176;50.844;4.412;2023-07-31T11:33:38;20.40;99.90
27795;DHT22;15176;50.844;4.412;2023-07-31T11:36:04;20.50;99.90
27795;DHT22;15176;50.844;4.412;2023-07-31T11:38:33;20.50;99.90
27795;DHT22;15176;50.844;4.412;2023-07-31T11:41:02;20.70;99.90
27795;DHT22;15176;50.844;4.412;2023-07-31T11:43:29;20.40;99.90
27795;DHT22;15176;50.844;4.412;2023-07-31T11:46:00;20.60;99.90
27795;DHT22;15176;50.844;4.412;2023-07-31T11:48:34;20.40;99.90
27795;DHT22;15176;50.844;4.412;2023-07-31T11:51:03;20.60;99.90
27795;DHT22;15176;50.844;4.412;2023-07-31T11:53:48;20.70;99.90
27795;DHT22;15176;50.844;4.412;2023-07-31T11:56:17;20.70;99.90
27795;DHT22;15176;50.844;4.412;2023-07-31T11:58:46;20.80;99.90
27795;DHT22;15176;50.844;4.412;2023-07-31T12:01:11;20.60;99.90
27795;DHT22;15176;50.844;4.412;2023-07-31T12:03:39;20.30;99.90
27795;DHT22;15176;50.844;4.412;2023-07-31T12:06:04;20.10;99.90
27795;DHT22;15176;50.844;4.412;2023-07-31T12:08:30;20.20;99.90
27795;DHT22;15176;50.844;4.412;2023-07-31T12:11:03;20.40;99.90
27795;DHT22;15176;50.844;4.412;2023-07-31T12:13:31;20.70;99.90
27795;DHT22;15176;50.844;4.412;2023-07-31T12:16:00;21.00;99.90
27795;DHT22;15176;50.844;4.412;2023-07-31T12:18:29;21.20;99.90
27795;DHT22;15176;50.844;4.412;2023-07-31T12:20:59;21.20;99.90
27795;DHT22;15176;50.844;4.412;2023-07-31T12:26:07;20.70;99.90
27795;DHT22;15176;50.844;4.412;2023-07-31T12:28:40;21.00;99.90
27795;DHT22;15176;50.844;4.412;2023-07-31T12:33:39;20.80;99.90
27795;DHT22;15176;50.844;4.412;2023-07-31T12:36:12;21.00;99.90
27795;DHT22;15176;50.844;4.412;2023-07-31T12:38:38;21.10;99.90
27795;DHT22;15176;50.844;4.412;2023-07-31T12:41:04;21.10;99.90
27795;DHT22;15176;50.844;4.412;2023-07-31T12:43:32;21.00;99.90
27795;DHT22;15176;50.844;4.412;2023-07-31T12:45:58;20.80;99.90
27795;DHT22;15176;50.844;4.412;2023-07-31T12:48:24;21.10;99.90
27795;DHT22;15176;50.844;4.412;2023-07-31T12:50:50;21.00;99.90
27795;DHT22;15176;50.844;4.412;2023-07-31T12:53:16;20.90;99.90
27795;DHT22;15176;50.844;4.412;2023-07-31T12:55:41;21.00;99.90
27795;DHT22;15176;50.844;4.412;2023-07-31T12:58:07;21.00;99.90
27795;DHT22;15176;50.844;4.412;2023-07-31T13:00:33;21.20;99.90
27795;DHT22;15176;50.844;4.412;2023-07-31T13:03:00;21.10;99.90
27795;DHT22;15176;50.844;4.412;2023-07-31T13:05:27;20.90;99.90
27795;DHT22;15176;50.844;4.412;2023-07-31T13:07:53;20.60;99.90
27795;DHT22;15176;50.844;4.412;2023-07-31T13:10:19;20.40;99.90
27795;DHT22;15176;50.844;4.412;2023-07-31T13:12:45;20.10;99.90
27795;DHT22;15176;50.844;4.412;2023-07-31T13:15:11;20.30;99.90
27795;DHT22;15176;50.844;4.412;2023-07-31T13:17:37;20.30;99.90
27795;DHT22;15176;50.844;4.412;2023-07-31T13:20:03;20.20;99.90
27795;DHT22;15176;50.844;4.412;2023-07-31T13:22:29;20.30;99.90
27795;DHT22;15176;50.844;4.412;2023-07-31T13:24:55;20.40;99.90
27795;DHT22;15176;50.844;4.412;2023-07-31T13:27:21;20.40;99.90
27795;DHT22;15176;50.844;4.412;2023-07-31T13:29:51;20.30;99.90
27795;DHT22;15176;50.844;4.412;2023-07-31T13:32:18;20.10;99.90
27795;DHT22;15176;50.844;4.412;2023-07-31T13:34:44;20.10;99.90
27795;DHT22;15176;50.844;4.412;2023-07-31T13:37:10;20.20;99.90
27795;DHT22;15176;50.844;4.412;2023-07-31T13:39:36;20.10;99.90
27795;DHT22;15176;50.844;4.412;2023-07-31T13:42:03;20.10;99.90
27795;DHT22;15176;50.844;4.412;2023-07-31T13:44:32;20.00;99.90
27795;DHT22;15176;50.844;4.412;2023-07-31T13:46:57;19.80;99.90
27795;DHT22;15176;50.844;4.412;2023-07-31T13:49:23;19.80;99.90
27795;DHT22;15176;50.844;4.412;2023-07-31T13:51:49;20.10;99.90
27795;DHT22;15176;50.844;4.412;2023-07-31T13:54:14;19.80;99.90
27795;DHT22;15176;50.844;4.412;2023-07-31T13:56:41;19.90;99.90
27795;DHT22;15176;50.844;4.412;2023-07-31T13:59:06;19.90;99.90
27795;DHT22;15176;50.844;4.412;2023-07-31T14:01:32;19.60;99.90
27795;DHT22;15176;50.844;4.412;2023-07-31T14:03:58;19.40;99.90
27795;DHT22;15176;50.844;4.412;2023-07-31T14:06:24;19.60;99.90
27795;DHT22;15176;50.844;4.412;2023-07-31T14:08:49;19.80;99.90
27795;DHT22;15176;50.844;4.412;2023-07-31T14:11:15;19.90;99.90
27795;DHT22;15176;50.844;4.412;2023-07-31T14:13:41;19.60;99.90
27795;DHT22;15176;50.844;4.412;2023-07-31T14:16:07;19.40;99.90
27795;DHT22;15176;50.844;4.412;2023-07-31T14:18:32;19.20;99.90
27795;DHT22;15176;50.844;4.412;2023-07-31T14:20:58;19.50;99.90
27795;DHT22;15176;50.844;4.412;2023-07-31T14:23:24;19.70;99.90
27795;DHT22;15176;50.844;4.412;2023-07-31T14:25:50;19.50;99.90
27795;DHT22;15176;50.844;4.412;2023-07-31T14:28:15;19.60;99.90
27795;DHT22;15176;50.844;4.412;2023-07-31T14:30:41;19.60;99.90
27795;DHT22;15176;50.844;4.412;2023-07-31T14:33:07;19.70;99.90
27795;DHT22;15176;50.844;4.412;2023-07-31T14:35:34;19.70;99.90
27795;DHT22;15176;50.844;4.412;2023-07-31T14:38:00;19.40;99.90
27795;DHT22;15176;50.844;4.412;2023-07-31T14:40:26;19.40;99.90
27795;DHT22;15176;50.844;4.412;2023-07-31T14:42:51;19.60;99.90
27795;DHT22;15176;50.844;4.412;2023-07-31T14:45:18;19.60;99.90
27795;DHT22;15176;50.844;4.412;2023-07-31T14:47:43;19.40;99.90
27795;DHT22;15176;50.844;4.412;2023-07-31T14:50:12;19.20;99.90
27795;DHT22;15176;50.844;4.412;2023-07-31T14:52:38;19.10;99.90
27795;DHT22;15176;50.844;4.412;2023-07-31T14:55:05;19.20;99.90
27795;DHT22;15176;50.844;4.412;2023-07-31T14:57:31;19.40;99.90
27795;DHT22;15176;50.844;4.412;2023-07-31T14:59:57;19.50;99.90
27795;DHT22;15176;50.844;4.412;2023-07-31T15:02:22;19.60;99.90
27795;DHT22;15176;50.844;4.412;2023-07-31T15:04:48;19.60;99.90
27795;DHT22;15176;50.844;4.412;2023-07-31T15:07:14;19.40;99.90
27795;DHT22;15176;50.844;4.412;2023-07-31T15:09:40;19.40;99.90
27795;DHT22;15176;50.844;4.412;2023-07-31T15:12:06;19.20;99.90
27795;DHT22;15176;50.844;4.412;2023-07-31T15:14:32;19.20;99.90
27795;DHT22;15176;50.844;4.412;2023-07-31T15:17:00;19.40;99.90
27795;DHT22;15176;50.844;4.412;2023-07-31T15:19:25;19.50;99.90
27795;DHT22;15176;50.844;4.412;2023-07-31T15:21:51;19.30;99.90
27795;DHT22;15176;50.844;4.412;2023-07-31T15:24:17;19.30;99.90
27795;DHT22;15176;50.844;4.412;2023-07-31T15:26:43;19.40;99.90
27795;DHT22;15176;50.844;4.412;2023-07-31T15:29:08;19.40;99.90
27795;DHT22;15176;50.844;4.412;2023-07-31T15:31:39;19.40;99.90
27795;DHT22;15176;50.844;4.412;2023-07-31T15:34:05;19.60;99.90
27795;DHT22;15176;50.844;4.412;2023-07-31T15:36:31;19.80;99.90
27795;DHT22;15176;50.844;4.412;2023-07-31T15:38:57;19.90;99.90
27795;DHT22;15176;50.844;4.412;2023-07-31T15:41:23;19.90;99.90
27795;DHT22;15176;50.844;4.412;2023-07-31T15:43:49;19.80;99.90
27795;DHT22;15176;50.844;4.412;2023-07-31T15:46:15;19.50;99.90